createdAt,value
2018-04-22T00:00:07.668Z,37.06
2018-04-22T00:02:47.585Z,37.36
2018-04-22T00:05:26.064Z,36.79
2018-04-22T00:08:04.465Z,36.92
2018-04-22T00:10:43.967Z,36.69
2018-04-22T00:13:22.448Z,36.71
2018-04-22T00:16:01.047Z,37.04
2018-04-22T00:18:39.665Z,37.24
2018-04-22T00:21:17.878Z,37.34
2018-04-22T00:23:56.706Z,37.32
2018-04-22T00:26:35.872Z,36.88
2018-04-22T00:29:14.115Z,36.47
2018-04-22T00:31:52.552Z,36.95
2018-04-22T00:34:31.739Z,36.84
2018-04-22T00:37:10.235Z,36.72
2018-04-22T00:39:48.922Z,36.88
2018-04-22T00:42:27.644Z,36.74
2018-04-22T00:45:05.911Z,36.90
2018-04-22T00:47:44.250Z,36.88
2018-04-22T00:50:23.003Z,37.04
2018-04-22T00:53:01.188Z,36.61
2018-04-22T00:55:39.683Z,36.35
2018-04-22T00:58:23.088Z,36.48
2018-04-22T01:01:05.624Z,36.11
2018-04-22T01:03:43.478Z,36.05
2018-04-22T01:06:21.632Z,36.17
2018-04-22T01:09:04.368Z,36.48
2018-04-22T01:11:42.778Z,36.56
2018-04-22T01:14:21.619Z,36.62
2018-04-22T01:17:04.896Z,36.80
2018-04-22T01:19:44.224Z,36.72
2018-04-22T01:22:22.839Z,36.34
2018-04-22T01:25:01.212Z,36.69
2018-04-22T01:27:39.511Z,36.13
2018-04-22T01:30:18.585Z,36.51
2018-04-22T01:32:57.164Z,36.58
2018-04-22T01:35:35.390Z,36.58
2018-04-22T01:38:14.865Z,36.19
2018-04-22T01:40:52.984Z,36.43
2018-04-22T01:43:31.208Z,36.18
2018-04-22T01:46:10.567Z,35.85
2018-04-22T01:48:48.471Z,36.14
2018-04-22T01:51:26.391Z,36.05
2018-04-22T01:54:05.326Z,36.14
2018-04-22T01:56:44.495Z,36.00
2018-04-22T01:59:22.983Z,36.33
2018-04-22T02:02:01.896Z,35.96
2018-04-22T02:04:40.434Z,36.05
2018-04-22T02:07:18.578Z,36.45
2018-04-22T02:09:57.103Z,35.72
2018-04-22T02:12:35.959Z,35.92
2018-04-22T02:15:14.366Z,35.97
2018-04-22T02:17:53.599Z,35.96
2018-04-22T02:20:31.870Z,35.90
2018-04-22T02:23:10.174Z,36.06
2018-04-22T02:25:48.783Z,36.29
2018-04-22T02:28:27.156Z,36.31
2018-04-22T02:31:05.516Z,36.03
2018-04-22T02:33:44.070Z,36.00
2018-04-22T02:36:22.071Z,35.56
2018-04-22T02:39:00.330Z,35.83
2018-04-22T02:41:39.077Z,35.91
2018-04-22T02:44:17.889Z,35.45
2018-04-22T02:46:57.652Z,35.29
2018-04-22T02:49:36.083Z,35.40
2018-04-22T02:52:14.405Z,35.35
2018-04-22T02:54:53.385Z,35.17
2018-04-22T02:57:32.639Z,35.16
2018-04-22T03:00:10.876Z,35.05
2018-04-22T03:02:49.967Z,35.54
2018-04-22T03:05:28.674Z,35.22
2018-04-22T03:08:11.177Z,35.08
2018-04-22T03:10:49.331Z,35.48
2018-04-22T03:13:27.944Z,35.31
2018-04-22T03:16:07.032Z,35.13
2018-04-22T03:18:45.432Z,35.10
2018-04-22T03:21:24.537Z,35.32
2018-04-22T03:24:03.039Z,35.01
2018-04-22T03:26:42.025Z,35.23
2018-04-22T03:29:20.840Z,34.85
2018-04-22T03:31:59.059Z,35.30
2018-04-22T03:34:37.223Z,35.06
2018-04-22T03:37:16.868Z,34.98
2018-04-22T03:39:55.237Z,34.98
2018-04-22T03:42:34.211Z,34.96
2018-04-22T03:45:13.613Z,34.89
2018-04-22T03:47:51.913Z,35.28
2018-04-22T03:50:30.215Z,35.21
2018-04-22T03:53:08.520Z,35.57
2018-04-22T03:55:46.701Z,35.63
2018-04-22T03:58:24.919Z,35.50
2018-04-22T04:01:03.530Z,35.20
2018-04-22T04:03:42.565Z,35.15
2018-04-22T04:06:21.336Z,35.79
2018-04-22T04:09:00.213Z,35.77
2018-04-22T04:11:38.428Z,35.40
2018-04-22T04:14:17.512Z,35.01
2018-04-22T04:16:55.951Z,35.68
2018-04-22T04:20:53.766Z,35.52
2018-04-22T04:23:46.421Z,35.50
2018-04-22T04:27:39.597Z,35.72
2018-04-22T04:30:18.155Z,35.83
2018-04-22T04:32:57.444Z,35.10
2018-04-22T04:35:35.820Z,35.49
2018-04-22T04:38:14.130Z,35.32
2018-04-22T04:40:52.985Z,34.75
2018-04-22T04:43:32.328Z,35.30
2018-04-22T04:46:11.687Z,35.33
2018-04-22T04:48:50.061Z,35.55
2018-04-22T04:51:28.387Z,35.66
2018-04-22T04:54:07.095Z,35.68
2018-04-22T04:56:46.489Z,35.88
2018-04-22T04:59:25.044Z,36.18
2018-04-22T05:02:03.378Z,35.86
2018-04-22T05:04:42.199Z,35.05
2018-04-22T05:07:20.635Z,35.22
2018-04-22T05:09:59.165Z,35.74
2018-04-22T05:12:38.582Z,35.69
2018-04-22T05:15:16.766Z,35.62
2018-04-22T05:17:55.029Z,35.38
2018-04-22T05:20:33.334Z,34.23
2018-04-22T05:23:12.724Z,34.62
2018-04-22T05:25:51.830Z,34.37
2018-04-22T05:28:30.988Z,34.94
2018-04-22T05:31:09.383Z,35.32
2018-04-22T05:33:47.555Z,34.73
2018-04-22T05:36:27.071Z,34.43
2018-04-22T05:39:06.529Z,35.52
2018-04-22T05:41:45.016Z,35.97
2018-04-22T05:44:24.632Z,35.13
2018-04-22T05:47:03.785Z,36.21
2018-04-22T05:49:42.202Z,36.54
2018-04-22T05:52:20.907Z,35.92
2018-04-22T05:55:00.445Z,36.02
2018-04-22T05:57:38.600Z,36.37
2018-04-22T06:00:18.504Z,36.67
2018-04-22T06:02:57.865Z,36.45
2018-04-22T06:05:36.285Z,36.87
2018-04-22T06:08:18.159Z,37.24
2018-04-22T06:11:02.782Z,37.62
2018-04-22T06:13:41.814Z,37.53
2018-04-22T06:16:20.372Z,37.68
2018-04-22T06:18:59.768Z,37.49
2018-04-22T06:21:38.198Z,37.25
2018-04-22T06:24:19.109Z,36.04
2018-04-22T06:26:57.145Z,36.00
2018-04-22T06:29:36.471Z,36.65
2018-04-22T06:32:15.807Z,37.44
2018-04-22T06:34:54.694Z,37.39
2018-04-22T06:37:34.437Z,38.21
2018-04-22T06:40:13.469Z,37.56
2018-04-22T06:42:53.111Z,38.06
2018-04-22T06:45:31.728Z,37.87
2018-04-22T06:48:11.612Z,39.09
2018-04-22T06:50:52.523Z,38.78
2018-04-22T06:53:31.751Z,38.21
2018-04-22T06:56:10.072Z,38.49
2018-04-22T06:58:48.846Z,38.06
2018-04-22T07:01:27.599Z,39.25
2018-04-22T07:04:07.000Z,39.81
2018-04-22T07:06:45.516Z,39.88
2018-04-22T07:09:26.531Z,40.06
2018-04-22T07:12:04.969Z,39.42
2018-04-22T07:14:44.175Z,39.84
2018-04-22T07:17:25.563Z,40.10
2018-04-22T07:20:04.509Z,40.70
2018-04-22T07:22:43.327Z,40.16
2018-04-22T07:25:23.763Z,40.05
2018-04-22T07:28:02.839Z,40.72
2018-04-22T07:30:42.889Z,41.60
2018-04-22T07:33:22.796Z,40.73
2018-04-22T07:36:01.878Z,40.69
2018-04-22T07:38:41.522Z,39.88
2018-04-22T07:41:19.932Z,41.79
2018-04-22T07:43:59.556Z,41.80
2018-04-22T07:46:38.722Z,41.57
2018-04-22T07:49:17.548Z,41.53
2018-04-22T07:51:55.792Z,42.35
2018-04-22T07:54:35.382Z,42.45
2018-04-22T07:57:14.011Z,42.77
2018-04-22T07:59:52.571Z,43.13
2018-04-22T08:02:33.168Z,43.30
2018-04-22T08:05:12.241Z,42.69
2018-04-22T08:07:51.521Z,43.71
2018-04-22T08:10:32.408Z,43.34
2018-04-22T08:13:11.482Z,43.86
2018-04-22T08:15:49.531Z,43.51
2018-04-22T08:18:30.832Z,43.85
2018-04-22T08:21:13.914Z,43.73
2018-04-22T08:23:53.162Z,44.05
2018-04-22T08:26:33.819Z,43.37
2018-04-22T08:29:13.890Z,44.61
2018-04-22T08:31:52.272Z,44.73
2018-04-22T08:34:33.518Z,43.63
2018-04-22T08:37:11.703Z,43.88
2018-04-22T08:39:50.052Z,44.15
2018-04-22T08:42:28.687Z,45.09
2018-04-22T08:45:06.962Z,44.84
2018-04-22T08:47:46.192Z,45.77
2018-04-22T08:50:27.294Z,44.94
2018-04-22T08:53:05.420Z,44.62
2018-04-22T08:55:45.088Z,45.81
2018-04-22T08:58:23.882Z,44.80
2018-04-22T09:01:03.783Z,45.71
2018-04-22T09:03:42.171Z,46.12
2018-04-22T09:06:20.577Z,46.51
2018-04-22T09:08:59.757Z,45.61
2018-04-22T09:11:39.274Z,46.34
2018-04-22T09:14:21.394Z,45.72
2018-04-22T09:16:59.752Z,45.85
2018-04-22T09:19:43.276Z,46.04
2018-04-22T09:22:22.057Z,46.33
2018-04-22T09:25:00.964Z,45.90
2018-04-22T09:27:43.495Z,46.91
2018-04-22T09:30:22.844Z,47.02
2018-04-22T09:33:02.251Z,47.16
2018-04-22T09:35:42.821Z,47.00
2018-04-22T09:38:22.237Z,46.57
2018-04-22T09:41:00.933Z,46.30
2018-04-22T09:43:41.751Z,47.52
2018-04-22T09:46:19.920Z,47.88
2018-04-22T09:48:59.082Z,47.34
2018-04-22T09:51:39.370Z,47.90
2018-04-22T09:54:17.943Z,46.92
2018-04-22T09:56:57.991Z,47.70
2018-04-22T09:59:40.999Z,47.17
2018-04-22T10:02:23.691Z,46.66
2018-04-22T10:05:07.591Z,46.71
2018-04-22T10:07:47.448Z,47.29
2018-04-22T10:10:28.132Z,47.70
2018-04-22T10:13:06.967Z,47.42
2018-04-22T10:15:46.614Z,47.78
2018-04-22T10:18:27.088Z,47.33
2018-04-22T10:21:06.566Z,47.44
2018-04-22T10:23:49.665Z,47.06
2018-04-22T10:26:28.080Z,47.31
2018-04-22T10:29:07.524Z,47.82
2018-04-22T10:31:47.999Z,48.61
2018-04-22T10:34:27.715Z,47.78
2018-04-22T10:37:06.546Z,48.81
2018-04-22T10:39:47.254Z,49.54
2018-04-22T10:42:26.113Z,49.26
2018-04-22T10:45:04.484Z,48.51
2018-04-22T10:47:43.048Z,48.80
2018-04-22T10:50:21.950Z,49.16
2018-04-22T10:53:00.327Z,47.93
2018-04-22T10:55:39.628Z,48.32
2018-04-22T10:58:18.669Z,48.74
2018-04-22T11:00:57.645Z,47.81
2018-04-22T11:03:37.200Z,48.87
2018-04-22T11:06:15.241Z,47.72
2018-04-22T11:08:55.800Z,48.15
2018-04-22T11:11:34.257Z,47.64
2018-04-22T11:14:14.295Z,47.86
2018-04-22T11:16:56.803Z,48.11
2018-04-22T11:19:36.411Z,49.52
2018-04-22T11:22:14.958Z,49.76
2018-04-22T11:24:56.007Z,50.38
2018-04-22T11:27:34.759Z,49.36
2018-04-22T11:30:14.130Z,50.31
2018-04-22T11:32:53.960Z,50.53
2018-04-22T11:35:32.621Z,50.34
2018-04-22T11:38:11.783Z,50.13
2018-04-22T11:40:50.933Z,49.10
2018-04-22T11:43:29.266Z,49.76
2018-04-22T11:46:07.431Z,49.37
2018-04-22T11:48:45.820Z,50.21
2018-04-22T11:51:23.990Z,50.54
2018-04-22T11:54:01.933Z,50.51
2018-04-22T11:56:42.001Z,50.45
2018-04-22T11:59:20.347Z,50.59
2018-04-22T12:01:59.680Z,50.40
2018-04-22T12:04:38.233Z,49.83
2018-04-22T12:07:24.721Z,50.09
2018-04-22T12:10:02.768Z,50.12
2018-04-22T12:12:41.068Z,49.80
2018-04-22T12:15:27.547Z,49.08
2018-04-22T12:18:06.592Z,50.91
2018-04-22T12:20:45.680Z,50.79
2018-04-22T12:23:24.265Z,50.22
2018-04-22T12:26:02.535Z,49.84
2018-04-22T12:28:41.530Z,49.79
2018-04-22T12:31:32.236Z,49.36
2018-04-22T12:34:10.382Z,49.79
2018-04-22T12:36:49.212Z,48.72
2018-04-22T12:39:39.286Z,49.33
2018-04-22T12:42:20.215Z,49.55
2018-04-22T12:44:59.937Z,48.56
2018-04-22T12:47:39.943Z,48.46
2018-04-22T12:50:22.071Z,50.17
2018-04-22T12:53:09.142Z,51.21
2018-04-22T12:56:06.026Z,51.62
2018-04-22T13:01:49.661Z,50.67
2018-04-22T13:04:38.676Z,50.26
2018-04-22T13:07:17.537Z,49.68
2018-04-22T13:10:03.073Z,50.08
2018-04-22T13:12:45.913Z,50.50
2018-04-22T13:15:23.966Z,50.20
2018-04-22T13:18:02.758Z,51.47
2018-04-22T13:20:41.923Z,50.46
2018-04-22T13:23:20.133Z,51.72
2018-04-22T13:25:59.552Z,51.98
2018-04-22T13:28:47.519Z,52.10
2018-04-22T13:31:39.115Z,51.88
2018-04-22T13:34:17.979Z,50.76
2018-04-22T13:36:57.247Z,50.99
2018-04-22T13:39:36.390Z,51.85
2018-04-22T13:42:16.304Z,51.13
2018-04-22T13:44:55.374Z,51.84
2018-04-22T13:47:33.768Z,52.31
2018-04-22T13:50:25.247Z,52.08
2018-04-22T13:53:06.626Z,51.63
2018-04-22T13:55:45.548Z,52.24
2018-04-22T13:58:43.995Z,51.85
2018-04-22T14:01:22.804Z,50.42
2018-04-22T14:04:07.588Z,51.28
2018-04-22T14:06:46.205Z,51.57
2018-04-22T14:09:25.138Z,52.32
2018-04-22T14:12:04.056Z,53.10
2018-04-22T14:14:42.725Z,53.52
2018-04-22T14:17:21.248Z,53.32
2018-04-22T14:20:00.120Z,53.00
2018-04-22T14:22:38.142Z,51.56
2018-04-22T14:25:16.889Z,52.29
2018-04-22T14:27:55.092Z,52.13
2018-04-22T14:30:56.564Z,51.52
2018-04-22T14:33:36.099Z,51.43
2018-04-22T14:36:21.782Z,51.54
2018-04-22T14:39:00.872Z,51.98
2018-04-22T14:41:39.822Z,51.69
2018-04-22T14:46:26.612Z,52.24
2018-04-22T14:49:10.372Z,50.94
2018-04-22T14:51:49.290Z,51.63
2018-04-22T14:54:27.969Z,50.33
2018-04-22T14:57:06.478Z,52.19
2018-04-22T14:59:44.806Z,51.80
2018-04-22T15:02:23.021Z,50.81
2018-04-22T15:05:02.340Z,51.37
2018-04-22T15:07:52.918Z,50.38
2018-04-22T15:10:39.427Z,51.43
2018-04-22T15:13:17.649Z,51.52
2018-04-22T15:15:55.949Z,51.61
2018-04-22T15:18:34.408Z,52.20
2018-04-22T15:21:27.503Z,51.18
2018-04-22T15:24:05.668Z,51.50
2018-04-22T15:26:50.015Z,51.99
2018-04-22T15:29:28.457Z,50.87
2018-04-22T15:32:10.804Z,51.38
2018-04-22T15:34:52.819Z,50.71
2018-04-22T15:37:30.976Z,48.27
2018-04-22T15:40:09.522Z,49.61
2018-04-22T15:42:51.640Z,51.34
2018-04-22T15:45:32.676Z,51.05
2018-04-22T15:48:11.815Z,50.65
2018-04-22T15:50:53.132Z,51.00
2018-04-22T15:53:31.104Z,50.90
2018-04-22T15:56:17.993Z,50.54
2018-04-22T15:58:56.203Z,50.44
2018-04-22T16:01:45.905Z,50.80
2018-04-22T16:04:28.930Z,50.44
2018-04-22T16:07:08.056Z,49.54
2018-04-22T16:09:55.982Z,49.57
2018-04-22T16:12:33.927Z,49.80
2018-04-22T16:15:14.362Z,49.24
2018-04-22T16:18:04.081Z,48.98
2018-04-22T16:20:42.248Z,49.51
2018-04-22T16:23:22.452Z,49.46
2018-04-22T16:26:11.015Z,50.37
2018-04-22T16:28:50.806Z,50.19
2018-04-22T16:31:31.980Z,50.54
2018-04-22T16:34:10.308Z,49.68
2018-04-22T16:36:48.768Z,49.29
2018-04-22T16:39:33.709Z,48.67
2018-04-22T16:42:12.093Z,49.41
2018-04-22T16:44:55.140Z,50.13
2018-04-22T16:47:33.903Z,49.98
2018-04-22T16:50:12.360Z,50.19
2018-04-22T16:52:54.110Z,49.62
2018-04-22T16:55:33.031Z,49.77
2018-04-22T16:58:11.932Z,49.40
2018-04-22T17:00:51.994Z,49.07
2018-04-22T17:03:30.862Z,49.48
2018-04-22T17:06:12.286Z,49.54
2018-04-22T17:08:50.931Z,48.26
2018-04-22T17:11:30.266Z,47.48
2018-04-22T17:14:08.878Z,47.87
2018-04-22T17:16:48.161Z,47.53
2018-04-22T17:19:26.529Z,48.68
2018-04-22T17:22:04.851Z,48.78
2018-04-22T17:24:43.113Z,49.45
2018-04-22T17:27:22.089Z,48.65
2018-04-22T17:30:01.495Z,49.05
2018-04-22T17:32:39.847Z,48.87
2018-04-22T17:35:20.738Z,49.12
2018-04-22T17:37:58.978Z,47.34
2018-04-22T17:40:37.990Z,47.57
2018-04-22T17:43:19.158Z,47.27
2018-04-22T17:46:02.014Z,47.25
2018-04-22T17:48:41.306Z,48.11
2018-04-22T17:51:22.300Z,47.11
2018-04-22T17:54:01.405Z,47.34
2018-04-22T17:56:39.628Z,47.44
2018-04-22T17:59:18.090Z,47.71
2018-04-22T18:01:56.410Z,47.63
2018-04-22T18:04:34.765Z,46.47
2018-04-22T18:20:05.428Z,47.44
2018-04-22T18:22:44.658Z,46.48
2018-04-22T18:25:23.408Z,46.68
2018-04-22T18:28:03.535Z,47.16
2018-04-22T18:30:44.684Z,46.88
2018-04-22T18:33:27.976Z,45.93
2018-04-22T18:36:06.133Z,45.21
2018-04-22T18:38:46.092Z,45.49
2018-04-22T18:41:28.113Z,45.99
2018-04-22T18:44:06.332Z,46.34
2018-04-22T18:46:46.525Z,46.16
2018-04-22T18:49:24.977Z,46.10
2018-04-22T18:52:04.506Z,46.05
2018-04-22T18:54:44.071Z,46.06
2018-04-22T18:57:22.546Z,46.04
2018-04-22T19:00:01.218Z,45.89
2018-04-22T19:02:39.552Z,46.13
2018-04-22T19:05:18.062Z,46.06
2018-04-22T19:07:58.663Z,45.43
2018-04-22T19:10:38.530Z,45.25
2018-04-22T19:13:16.665Z,45.26
2018-04-22T19:15:55.862Z,45.01
2018-04-22T19:18:35.558Z,44.93
2018-04-22T19:21:14.318Z,44.63
2018-04-22T19:23:53.297Z,44.70
2018-04-22T19:26:37.985Z,44.62
2018-04-22T19:29:17.306Z,44.75
2018-04-22T19:31:57.579Z,44.30
2018-04-22T19:34:37.176Z,44.06
2018-04-22T19:37:15.548Z,44.49
2018-04-22T19:39:53.723Z,43.85
2018-04-22T19:42:32.235Z,43.74
2018-04-22T19:45:10.589Z,43.42
2018-04-22T19:47:49.227Z,43.46
2018-04-22T19:50:29.047Z,43.67
2018-04-22T19:53:08.903Z,43.89
2018-04-22T19:55:47.346Z,43.45
2018-04-22T19:58:25.889Z,43.65
2018-04-22T20:01:04.614Z,43.84
2018-04-22T20:03:42.900Z,43.86
2018-04-22T20:06:22.099Z,43.84
2018-04-22T20:09:00.821Z,43.88
2018-04-22T20:11:39.620Z,43.36
2018-04-22T20:14:19.981Z,43.91
2018-04-22T20:16:58.515Z,43.55
2018-04-22T20:19:36.954Z,43.35
2018-04-22T20:22:17.973Z,43.24
2018-04-22T20:24:56.293Z,43.44
2018-04-22T20:27:35.594Z,43.25
2018-04-22T20:30:14.639Z,43.27
2018-04-22T20:32:54.415Z,42.69
2018-04-22T20:35:32.947Z,42.76
2018-04-22T20:38:11.965Z,43.04
2018-04-22T20:40:51.027Z,43.12
2018-04-22T20:43:29.500Z,43.25
2018-04-22T20:46:08.181Z,42.88
2018-04-22T20:48:46.545Z,42.57
2018-04-22T20:51:25.503Z,43.05
2018-04-22T20:54:05.033Z,43.03
2018-04-22T20:56:44.091Z,42.93
2018-04-22T20:59:22.170Z,42.49
2018-04-22T21:02:02.605Z,42.63
2018-04-22T21:04:42.499Z,42.40
2018-04-22T21:07:20.622Z,42.51
2018-04-22T21:09:59.824Z,42.66
2018-04-22T21:12:43.941Z,42.39
2018-04-22T21:15:23.400Z,42.71
2018-04-22T21:18:03.058Z,42.66
2018-04-22T21:20:40.989Z,42.90
2018-04-22T21:23:19.286Z,42.52
2018-04-22T21:25:57.934Z,42.59
2018-04-22T21:28:36.063Z,42.34
2018-04-22T21:31:14.977Z,42.41
2018-04-22T21:33:53.240Z,42.73
2018-04-22T21:36:32.335Z,42.34
2018-04-22T21:39:10.614Z,42.10
2018-04-22T21:41:49.929Z,42.19
2018-04-22T21:44:28.249Z,42.25
2018-04-22T21:47:07.502Z,42.03
2018-04-22T21:49:47.674Z,41.74
2018-04-22T21:52:27.031Z,41.49
2018-04-22T21:55:06.015Z,41.54
2018-04-22T21:57:46.443Z,41.36
2018-04-22T22:00:26.123Z,41.68
2018-04-22T22:03:04.509Z,40.84
2018-04-22T22:05:43.767Z,39.01
2018-04-22T22:08:22.441Z,39.36
2018-04-22T22:11:00.756Z,38.63
2018-04-22T22:13:40.041Z,39.32
2018-04-22T22:16:18.542Z,40.54
2018-04-22T22:18:56.896Z,40.33
2018-04-22T22:21:35.677Z,39.79
2018-04-22T22:24:16.160Z,38.74
2018-04-22T22:26:55.243Z,38.00
2018-04-22T22:29:35.051Z,39.44
2018-04-22T22:32:14.650Z,40.68
2018-04-22T22:34:52.988Z,40.79
2018-04-22T22:37:33.121Z,40.99
2018-04-22T22:40:12.696Z,41.07
2018-04-22T22:42:52.718Z,42.08
2018-04-22T22:45:31.622Z,41.38
2018-04-22T22:48:10.063Z,40.94
2018-04-22T22:50:48.803Z,41.43
2018-04-22T22:53:27.157Z,41.68
2018-04-22T22:56:05.350Z,41.76
2018-04-22T22:58:44.215Z,41.76
2018-04-22T23:01:23.971Z,40.81
2018-04-22T23:04:02.936Z,41.57
2018-04-22T23:06:41.682Z,41.14
2018-04-22T23:09:19.993Z,39.30
2018-04-22T23:11:58.276Z,41.12
2018-04-22T23:14:39.250Z,40.74
2018-04-22T23:17:17.424Z,41.05
2018-04-22T23:19:56.282Z,41.45
2018-04-22T23:22:35.969Z,40.76
2018-04-22T23:25:14.458Z,40.68
2018-04-22T23:27:53.055Z,41.03
2018-04-22T23:30:31.644Z,41.32
2018-04-22T23:33:09.917Z,41.34
2018-04-22T23:35:48.801Z,41.28
2018-04-22T23:38:26.940Z,40.61
2018-04-22T23:41:05.218Z,41.40
2018-04-22T23:43:43.618Z,41.29
2018-04-22T23:46:24.639Z,40.88
2018-04-22T23:49:03.972Z,40.90
2018-04-22T23:51:42.514Z,40.86
2018-04-22T23:54:22.012Z,40.42
2018-04-22T23:57:00.673Z,40.27
2018-04-22T23:59:39.159Z,40.34
